AirNav   Everest Fuels
 
 389 users online  

VT47 Miller Farm Airfield
Vernon, Vermont, USA

GOING TO VERNON?


FAA INFORMATION EFFECTIVE 10 SEPTEMBER 2020

Location

FAA Identifier: VT47
Lat/Long: 42-46-43.0000N 072-31-40.0000W
42-46.716667N 072-31.666667W
42.7786111,-72.5277778
(estimated)
Elevation: 285 ft. / 87 m (estimated)
From city: 1 mile NW of VERNON, VT
Time zone: UTC -4 (UTC -5 during Standard Time)
Zip code: 05354

Airport Operations

Airport use: Private use. Permission required prior to landing
Activation date: 02/2003
Control tower: no
ARTCC: BOSTON CENTER
FSS: BURLINGTON FLIGHT SERVICE STATION
Attendance: UNATNDD
Segmented circle: no

Airport Communications

WX AWOS-3PT at EEN (13 nm NE): 119.025 (603-358-6424)
WX ASOS at ORE (16 nm SE): 135.675 (978-544-6774)

Nearby radio navigation aids

VOR radial/distance  VOR name  Freq  Var
EENr279/10.4KEENE VORTAC109.4014W
GDMr318/25.0GARDNER VOR/DME110.6014W
CTRr046/34.7CHESTER VOR/DME115.1013W
BAFr027/37.9BARNES VORTAC113.0014W
CAMr124/38.1CAMBRIDGE VOR/DME115.0014W

 
NDB name  Hdg/Dist  Freq  Var  ID
CLAREMONT207/36.123316WCNH -.-. -. ....

Airport Services

Runway Information

Runway 18/36

Dimensions: 1800 x 100 ft. / 549 x 30 m
Surface: turf
RUNWAY 18  RUNWAY 36
Traffic pattern: leftleft

Airport Ownership and Management from official FAA records

Ownership: Privately-owned
Owner: PETER MILLER
1732 FT BRIDGEMAN RD
VERNON, VT 05354
Phone 802-380-3862
Manager: PETER MILLER
1732 FT BRIDGEMAN RD
VERNON, VT 05354
Phone 802-380-3862

Airport Operational Statistics

Aircraft based on the field: 1
Single engine airplanes: 1
    

Additional Remarks

286 FT TOWER 3/5 NM SE OF RY.
FOR CD CTC BOSTON ARTCC AT 603-879-6859.

Instrument Procedures

There are no published instrument procedures at VT47.

Some nearby airports with instrument procedures:

0B5 - Turners Falls Airport (11 nm S)
KEEN - Dillant-Hopkins Airport (13 nm NE)
KORE - Orange Municipal Airport (16 nm SE)
4V8 - Deerfield Valley Regional Airport (17 nm NW)
KAFN - Jaffrey Airport-Silver Ranch (23 nm E)
 
Loc | Ops | Rwys | IFR | FBO | Links
Com | Nav | Svcs | Stats | Notes
Area around VT47 (Miller Farm Airfield)
 
Road maps at: MapQuest Bing Google
 
Aerial photo
No photo
 
Sectional chart

 
Airport distance calculator
Flying to Miller Farm Airfield? Find the distance to fly.

From to VT47

Sunrise and sunset
Times for 18-Sep-2020
 Local
(UTC-4)
 Zulu
(UTC)
Morning civil twilight06:0710:07
Sunrise06:3510:35
Sunset18:5322:53
Evening civil twilight19:2123:21

Current date and time
Zulu (UTC)  18-Sep-2020 08:37:04
Local (UTC-4)  18-Sep-2020 04:37:04
 
METAR
KEEN 
13nm NE 
180756Z AUTO 34008KT 10SM BKN023 OVC033 14/11 A3001 RMK AO2 SLP165 T01390111 PNO $
KORE 
17nm SE 
180752Z AUTO 34004KT 10SM OVC036 14/11 A3000 RMK AO2 SLP157 T01440111
KAFN 
23nm E 
180752Z AUTO 01003KT 10SM OVC033 13/09 A3001 RMK AO2 SLP163 T01330094
TAF
KCEF 
35nm S 
172100Z 1721/1903 23010KT 9999 SCT050 BKN250 QNH2995INS BECMG 1723/1724 36012KT 9999 SCT025 SCT080 QNH2998INS TEMPO 1807/1812 -SHRA OVC020 BECMG 1816/1817 01012G18KT 9999 BKN035 BKN250 QNH3000INS BECMG 1820/1821 01012G18KT 9999 SCT050 SCT250 QNH3000INS TX24/1721Z TN13/1812Z LAST NO AMDS AFT 1803 NEXT 1813
KBAF 
38nm S 
180539Z 1806/1906 01006KT P6SM OVC080 FM181100 01008KT P6SM OVC025 FM181600 36010G20KT P6SM BKN035 FM190000 35007KT P6SM FEW250
KPSF 
39nm SW 
180524Z 1806/1906 01003KT P6SM OVC011 TEMPO 1806/1809 -DZ OVC009 FM180900 01004KT P6SM OVC009 TEMPO 1809/1812 OVC011 FM181200 01007KT P6SM OVC015 FM181500 35011KT P6SM BKN035 FM181800 34012G19KT P6SM FEW035 FM190100 32007KT P6SM SKC
KORH 
42nm SE 
180539Z 1806/1906 03005KT P6SM OVC200 FM181400 02010G20KT P6SM OVC030 FM182200 02010G20KT P6SM BKN100 FM190100 35009KT P6SM FEW250
NOTAMs
Click for the latest NOTAMs
NOTAMs are issued by the DoD/FAA and will open in a separate window not controlled by AirNav.

 

 
 

Would you like to see your business listed on this page?

 If your business provides an interesting product or service to pilots, flight crews, aircraft, or users of the Miller Farm Airfield, you should consider listing it here.  To start the listing process, click on the button below
 
Add a business
 

Other Pages about Miller Farm Airfield

Update a link
 
Copyright © AirNav, LLC. All rights reserved. Privacy Policy  Contact